Time;durP1;ratioP1;P1;durP2;ratioP2;P2;SDS_P1;SDS_P2;PMS_P1;PMS_P2;Temp;Humidity;BMP_temperature;BMP_pressure;BME280_temperature;BME280_humidity;BME280_pressure;Samples;Min_cycle;Max_cycle;Signal;HPM_P1;HPM_P2
2022/08/16 00:01:16;;;;;;;12.98;10.55;;;;;;;22.08;61.51;94224.19;4159376;28;20045;-71
2022/08/16 00:03:19;;;;;;;12.50;10.02;;;;;;;22.05;61.53;94225.50;4176637;28;20051;-71
2022/08/16 00:05:25;;;;;;;12.90;10.10;;;;;;;21.98;61.48;94226.69;4158879;28;20068;-71
2022/08/16 00:07:35;;;;;;;11.80;9.93;;;;;;;21.92;61.57;94233.81;4175774;28;20443;-70
2022/08/16 00:09:37;;;;;;;11.35;9.77;;;;;;;21.88;62.08;94228.16;4171626;28;20049;-73
2022/08/16 00:11:44;;;;;;;13.00;10.35;;;;;;;21.85;62.00;94222.47;4151364;28;20072;-71
2022/08/16 00:13:50;;;;;;;11.90;9.80;;;;;;;21.83;62.04;94224.56;4175962;28;20072;-70
2022/08/16 00:15:55;;;;;;;12.25;10.07;;;;;;;21.82;61.99;94214.97;4160037;28;20053;-71
2022/08/16 00:17:58;;;;;;;12.10;10.70;;;;;;;21.80;62.07;94217.88;4167505;28;20037;-71
2022/08/16 00:20:00;;;;;;;13.20;10.65;;;;;;;21.78;62.32;94219.16;4175921;28;20053;-70
2022/08/16 00:22:04;;;;;;;11.38;9.98;;;;;;;21.77;62.18;94223.69;4173026;28;20086;-69
2022/08/16 00:24:15;;;;;;;12.15;10.18;;;;;;;21.80;62.33;94225.06;4173207;28;20476;-72
2022/08/16 00:26:33;;;;;;;12.65;10.23;;;;;;;21.82;62.45;94229.09;4170776;28;20064;-70
2022/08/16 00:28:45;;;;;;;11.40;9.95;;;;;;;21.81;62.48;94230.16;4155842;28;20465;-70
2022/08/16 00:30:47;;;;;;;11.63;10.45;;;;;;;21.82;62.43;94228.28;4161697;28;20076;-69
2022/08/16 00:32:54;;;;;;;14.15;10.07;;;;;;;21.82;62.29;94223.75;4155615;28;20504;-70
2022/08/16 00:34:57;;;;;;;13.80;9.93;;;;;;;21.79;62.53;94226.09;4154935;28;20046;-69
2022/08/16 00:37:03;;;;;;;12.02;10.70;;;;;;;21.81;62.38;94232.81;4175925;28;20460;-70
2022/08/16 00:39:05;;;;;;;12.77;10.63;;;;;;;21.72;62.68;94234.25;4173808;28;20044;-71
2022/08/16 00:41:16;;;;;;;11.95;10.40;;;;;;;21.64;62.93;94230.13;4164647;28;20050;-68
2022/08/16 00:43:21;;;;;;;;;;;;;;;21.64;62.97;94232.78;4163839;28;20380;-69
2022/08/16 00:45:44;;;;;;;12.27;10.35;;;;;;;21.64;62.85;94230.13;4179637;28;19925;-70
2022/08/16 00:48:04;;;;;;;12.15;10.80;;;;;;;21.65;63.00;94242.38;4168762;28;20084;-69
2022/08/16 00:50:29;;;;;;;11.75;10.55;;;;;;;21.67;62.53;94252.81;4179435;28;20094;-70
2022/08/16 00:52:38;;;;;;;14.07;10.70;;;;;;;21.66;62.75;94248.53;4166394;28;20049;-71
2022/08/16 00:54:52;;;;;;;14.02;10.38;;;;;;;21.67;62.86;94255.50;4178482;28;20080;-70
2022/08/16 00:56:58;;;;;;;12.38;10.30;;;;;;;21.65;62.73;94258.38;4173178;28;20057;-70
2022/08/16 00:59:01;;;;;;;12.93;10.23;;;;;;;21.66;62.81;94248.53;4147348;28;20060;-71
2022/08/16 01:01:04;;;;;;;12.52;10.40;;;;;;;21.64;62.73;94256.78;4177992;28;20442;-71
2022/08/16 01:03:11;;;;;;;12.05;10.75;;;;;;;21.59;62.83;94259.34;4173801;28;20051;-70
2022/08/16 01:05:13;;;;;;;12.93;10.88;;;;;;;21.52;63.23;94258.69;4160471;28;20045;-69
2022/08/16 01:07:15;;;;;;;14.90;11.07;;;;;;;21.51;63.16;94256.25;4175408;28;20044;-68
2022/08/16 01:09:18;;;;;;;12.55;11.23;;;;;;;21.52;63.34;94253.34;4169909;28;20053;-68
2022/08/16 01:11:24;;;;;;;11.90;10.73;;;;;;;21.55;62.92;94258.19;4147262;28;20054;-67
2022/08/16 01:13:30;;;;;;;13.35;10.73;;;;;;;21.58;62.86;94265.72;4178332;28;20131;-68
2022/08/16 01:15:33;;;;;;;13.60;11.48;;;;;;;21.60;63.15;94262.84;4154204;28;20057;-66
2022/08/16 01:17:37;;;;;;;12.40;11.10;;;;;;;21.46;63.50;94267.63;4164441;28;20057;-69
2022/08/16 01:19:50;;;;;;;14.75;12.13;;;;;;;21.32;64.06;94268.94;4166039;28;20365;-68
2022/08/16 01:22:27;;;;;;;15.90;12.07;;;;;;;21.13;64.54;94277.06;4149805;28;20092;-68
2022/08/16 01:24:53;;;;;;;12.88;11.25;;;;;;;21.17;64.83;94278.22;4167401;28;20045;-67
2022/08/16 01:27:02;;;;;;;11.82;10.68;;;;;;;21.22;64.55;94274.84;4142323;28;20064;-68
2022/08/16 01:29:07;;;;;;;13.60;11.15;;;;;;;21.28;64.49;94274.72;4160099;28;20057;-69
2022/08/16 01:31:46;;;;;;;15.00;11.70;;;;;;;21.34;64.18;94277.47;4159471;28;20049;-69
2022/08/16 01:34:17;;;;;;;14.80;11.65;;;;;;;21.39;63.85;94274.91;4163806;28;20681;-68
2022/08/16 01:36:28;;;;;;;13.60;11.32;;;;;;;21.46;63.93;94272.94;4167198;28;20045;-68
2022/08/16 01:38:31;;;;;;;15.00;11.60;;;;;;;21.50;63.69;94276.75;4156889;28;20109;-68
2022/08/16 01:40:33;;;;;;;15.82;11.23;;;;;;;21.52;63.73;94280.00;4164838;28;20060;-68
2022/08/16 01:42:35;;;;;;;15.13;11.68;;;;;;;21.51;63.63;94283.72;4178290;28;20126;-68
2022/08/16 01:44:40;;;;;;;16.13;11.75;;;;;;;21.54;63.58;94285.09;4178069;28;20077;-69
2022/08/16 01:46:46;;;;;;;13.35;11.95;;;;;;;21.52;63.45;94280.00;4178696;28;20139;-69
2022/08/16 01:49:01;;;;;;;14.13;11.98;;;;;;;21.51;63.71;94280.22;4175354;28;20533;-70
2022/08/16 01:51:03;;;;;;;14.95;12.27;;;;;;;21.53;63.69;94283.47;4149288;28;20529;-69
2022/08/16 01:53:17;;;;;;;14.13;12.48;;;;;;;21.56;63.15;94283.00;4170296;28;20049;-67
2022/08/16 01:55:22;;;;;;;14.38;11.88;;;;;;;21.51;63.49;94278.41;4145313;28;20081;-69
2022/08/16 01:57:25;;;;;;;15.43;11.90;;;;;;;21.46;63.78;94280.94;4166238;28;20053;-68
2022/08/16 01:59:28;;;;;;;14.98;11.50;;;;;;;21.32;63.89;94268.94;4160870;28;20049;-67
2022/08/16 02:01:30;;;;;;;17.50;12.60;;;;;;;21.15;64.47;94288.28;4144915;28;20054;-68
2022/08/16 02:03:33;;;;;;;15.13;12.30;;;;;;;20.92;65.23;94281.13;4151615;28;20257;-69
2022/08/16 02:05:35;;;;;;;14.68;11.68;;;;;;;20.80;65.72;94302.47;4164000;28;20512;-68
2022/08/16 02:07:40;;;;;;;15.95;12.98;;;;;;;20.19;67.81;94298.31;4156346;28;20543;-70
2022/08/16 02:09:46;;;;;;;16.88;13.75;;;;;;;19.75;69.43;94308.38;4148512;28;20045;-68
2022/08/16 02:11:58;;;;;;;19.92;14.88;;;;;;;19.68;69.96;94308.44;4177392;28;20376;-68
2022/08/16 02:14:23;;;;;;;19.13;14.00;;;;;;;19.68;70.11;94308.44;4176709;28;20079;-68
2022/08/16 02:16:27;;;;;;;22.40;15.27;;;;;;;19.47;70.93;94323.00;4143461;28;20096;-68
2022/08/16 02:18:29;;;;;;;20.58;14.98;;;;;;;19.20;71.96;94331.25;4161131;28;20053;-68
2022/08/16 02:20:36;;;;;;;19.20;14.60;;;;;;;18.92;72.11;94344.22;4143578;28;20065;-68
2022/08/16 02:22:43;;;;;;;18.83;14.07;;;;;;;18.88;72.16;94356.31;4163562;28;20404;-67
2022/08/16 02:24:47;;;;;;;15.38;13.65;;;;;;;18.85;72.31;94354.09;4149322;28;20100;-66
2022/08/16 02:26:50;;;;;;;16.55;14.77;;;;;;;18.75;71.93;94352.72;4170294;28;20083;-68
2022/08/16 02:28:53;;;;;;;15.20;13.70;;;;;;;18.90;71.63;94355.06;4147972;28;20489;-68
2022/08/16 02:30:59;;;;;;;15.70;13.40;;;;;;;19.10;70.68;94352.22;4175723;28;20052;-68
2022/08/16 02:33:02;;;;;;;16.80;13.02;;;;;;;19.35;70.10;94349.47;4158773;28;20123;-69
2022/08/16 02:35:05;;;;;;;;;;;;;;;19.59;68.59;94358.38;4159163;28;20053;-68
2022/08/16 02:37:09;;;;;;;13.00;11.57;;;;;;;19.80;67.83;94369.63;4158716;28;19924;-68
2022/08/16 02:39:13;;;;;;;22.88;12.32;;;;;;;19.94;67.52;94357.78;4173619;28;20045;-68
2022/08/16 02:41:15;;;;;;;;;;;;;;;20.09;67.59;94360.06;4176822;28;20063;-68
2022/08/16 02:43:18;;;;;;;16.05;12.60;;;;;;;20.22;67.48;94357.19;4163821;28;19925;-67
2022/08/16 02:45:23;;;;;;;13.45;11.95;;;;;;;20.32;67.09;94351.31;4160630;28;20129;-68
2022/08/16 02:47:29;;;;;;;16.88;12.07;;;;;;;20.38;67.11;94353.06;4160575;28;20538;-68
2022/08/16 02:49:30;;;;;;;15.75;12.32;;;;;;;20.36;66.76;94351.66;4167405;28;20186;-69
2022/08/16 02:51:52;;;;;;;13.02;11.63;;;;;;;20.38;66.93;94345.06;4164404;28;20085;-69
2022/08/16 02:53:55;;;;;;;13.67;12.20;;;;;;;20.32;67.34;94345.97;4163739;28;20053;-68
2022/08/16 02:55:58;;;;;;;13.65;11.85;;;;;;;20.29;67.68;94341.13;4166560;28;20053;-69
2022/08/16 02:58:01;;;;;;;15.52;11.52;;;;;;;20.30;67.90;94339.28;4158656;28;20107;-68
2022/08/16 03:00:08;;;;;;;14.00;11.50;;;;;;;20.26;67.35;94338.91;4165404;28;20073;-68
2022/08/16 03:02:30;;;;;;;16.63;11.90;;;;;;;20.28;67.69;94336.03;4160102;28;20052;-68
2022/08/16 03:04:33;;;;;;;15.03;11.17;;;;;;;20.33;67.40;94336.97;4158836;28;20178;-69
2022/08/16 03:06:54;;;;;;;13.48;10.77;;;;;;;20.36;67.63;94325.88;4170801;28;20362;-68
2022/08/16 03:08:57;;;;;;;12.30;11.02;;;;;;;20.41;67.34;94318.03;4160323;28;20049;-68
2022/08/16 03:11:01;;;;;;;12.00;10.75;;;;;;;20.46;67.10;94318.16;4171843;28;20064;-67
2022/08/16 03:13:04;;;;;;;12.43;10.65;;;;;;;20.51;66.74;94314.78;4175861;28;20071;-68
2022/08/16 03:15:14;;;;;;;12.43;11.00;;;;;;;20.48;67.85;94311.75;4176638;28;20517;-68
2022/08/16 03:17:18;;;;;;;11.63;10.43;;;;;;;20.35;67.79;94308.31;4176125;28;20049;-67
2022/08/16 03:19:22;;;;;;;14.20;11.30;;;;;;;20.19;68.80;94293.00;4176040;28;20052;-66
2022/08/16 03:21:24;;;;;;;12.05;10.73;;;;;;;20.07;69.49;94292.16;4176240;28;20053;-68
2022/08/16 03:23:27;;;;;;;12.30;10.65;;;;;;;20.14;68.86;94299.00;4157620;28;20377;-68
2022/08/16 03:25:36;;;;;;;15.05;11.10;;;;;;;20.27;68.45;94291.88;4158807;28;20164;-68
2022/08/16 03:27:45;;;;;;;22.88;11.75;;;;;;;20.36;67.90;94301.94;4164212;28;20073;-68
2022/08/16 03:29:50;;;;;;;12.20;11.00;;;;;;;20.32;67.94;94302.63;4176429;28;20198;-68
2022/08/16 03:31:55;;;;;;;13.27;10.73;;;;;;;20.38;68.27;94302.50;4175658;28;20055;-69
2022/08/16 03:33:59;;;;;;;13.15;11.38;;;;;;;20.23;69.47;94302.94;4157644;28;20406;-68
2022/08/16 03:36:02;;;;;;;18.20;11.45;;;;;;;20.09;70.76;94301.53;4157964;28;20041;-67
2022/08/16 03:38:24;;;;;;;16.42;10.75;;;;;;;19.85;71.05;94303.31;4174013;28;20053;-68
2022/08/16 03:40:36;;;;;;;16.95;11.73;;;;;;;19.92;71.66;94308.53;4169122;28;20041;-69
2022/08/16 03:42:38;;;;;;;13.13;11.75;;;;;;;20.05;71.08;94311.81;4149344;28;20057;-68
2022/08/16 03:45:00;;;;;;;14.00;11.07;;;;;;;20.21;69.98;94312.19;4175548;28;20056;-67
2022/08/16 03:47:04;;;;;;;12.98;10.70;;;;;;;20.30;69.62;94310.00;4176070;28;20160;-68
2022/08/16 03:49:11;;;;;;;15.85;12.23;;;;;;;20.44;69.21;94311.44;4175672;28;20060;-68
2022/08/16 03:51:15;;;;;;;12.68;11.18;;;;;;;20.57;68.71;94318.41;4163835;28;20129;-67
2022/08/16 03:53:24;;;;;;;13.90;11.25;;;;;;;20.69;68.45;94321.88;4129501;28;20088;-68
2022/08/16 03:55:38;;;;;;;12.70;11.40;;;;;;;20.77;68.13;94315.41;4135027;28;20159;-67
2022/08/16 03:57:48;;;;;;;16.17;12.05;;;;;;;20.84;68.54;94313.44;4172263;28;20112;-69
2022/08/16 03:59:53;;;;;;;13.65;12.18;;;;;;;20.91;68.46;94319.47;4154770;28;20077;-68
2022/08/16 04:02:00;;;;;;;15.15;12.00;;;;;;;20.95;68.34;94307.31;4159832;28;20073;-69
2022/08/16 04:04:21;;;;;;;14.02;11.43;;;;;;;21.02;68.01;94312.53;4159323;28;20045;-69
2022/08/16 04:06:34;;;;;;;13.13;11.63;;;;;;;21.07;67.10;94307.28;4160237;28;20053;-68
2022/08/16 04:08:36;;;;;;;13.70;11.43;;;;;;;21.11;67.19;94321.75;4150495;28;20654;-66
2022/08/16 04:10:40;;;;;;;14.20;11.95;;;;;;;21.10;67.50;94308.66;4162632;28;20161;-68
2022/08/16 04:12:45;;;;;;;15.00;12.05;;;;;;;21.09;67.42;94307.88;4172910;28;20041;-69
2022/08/16 04:15:01;;;;;;;12.68;11.27;;;;;;;21.14;67.43;94307.97;4159984;28;20061;-68
2022/08/16 04:17:04;;;;;;;12.15;10.93;;;;;;;21.14;66.63;94304.50;4142361;28;20096;-68
2022/08/16 04:19:07;;;;;;;12.93;11.52;;;;;;;21.17;66.42;94304.84;4160319;28;20044;-67
2022/08/16 04:21:09;;;;;;;13.57;11.18;;;;;;;21.20;65.72;94304.38;4160537;28;20045;-68
2022/08/16 04:23:11;;;;;;;12.70;10.77;;;;;;;21.24;65.13;94302.84;4141923;28;20062;-69
2022/08/16 04:25:14;;;;;;;13.02;11.45;;;;;;;21.28;64.84;94297.88;4160825;28;20057;-69
2022/08/16 04:27:16;;;;;;;11.50;10.30;;;;;;;21.31;65.12;94296.59;4159670;28;20068;-68
2022/08/16 04:29:17;;;;;;;12.13;10.40;;;;;;;21.34;64.97;94301.44;4160719;28;20132;-68
2022/08/16 04:31:26;;;;;;;16.80;14.88;;;;;;;21.44;65.15;94305.16;4160481;28;20057;-68
2022/08/16 04:33:31;;;;;;;17.63;13.07;;;;;;;21.45;65.09;94311.31;4160372;28;20150;-68
2022/08/16 04:35:35;;;;;;;16.83;12.52;;;;;;;21.30;66.60;94314.44;4165254;28;20049;-68
2022/08/16 04:37:39;;;;;;;15.43;12.07;;;;;;;21.18;67.42;94316.31;4165701;28;20057;-69
2022/08/16 04:39:43;;;;;;;16.67;11.73;;;;;;;21.21;67.74;94316.66;4158501;28;20143;-69
2022/08/16 04:41:56;;;;;;;15.38;12.40;;;;;;;21.30;67.38;94301.13;4169996;28;20053;-69
2022/08/16 04:43:59;;;;;;;16.30;11.27;;;;;;;21.36;67.56;94302.00;4157891;28;20224;-67
2022/08/16 04:46:01;;;;;;;16.20;11.82;;;;;;;21.37;67.39;94298.31;4157545;28;20472;-68
2022/08/16 04:48:04;;;;;;;17.98;13.38;;;;;;;21.03;69.17;94309.59;4162837;28;20053;-68
2022/08/16 04:50:18;;;;;;;15.43;13.75;;;;;;;20.34;73.38;94305.88;4157390;28;20092;-67
2022/08/16 04:52:20;;;;;;;;;;;;;;;20.03;75.27;94307.78;4175156;28;20059;-67
2022/08/16 04:54:36;;;;;;;18.60;15.05;;;;;;;19.94;75.60;94312.59;4158760;28;20004;-68
2022/08/16 04:56:44;;;;;;;17.25;15.30;;;;;;;19.77;76.21;94309.75;4158231;28;20049;-69
2022/08/16 04:58:46;;;;;;;19.15;16.33;;;;;;;19.87;75.28;94311.88;4167344;28;20049;-67
2022/08/16 05:00:49;;;;;;;20.17;16.90;;;;;;;19.73;75.36;94313.09;4163954;28;20049;-68
2022/08/16 05:02:53;;;;;;;18.85;16.05;;;;;;;19.69;74.86;94325.19;4156979;28;20045;-69
2022/08/16 05:04:59;;;;;;;18.02;15.25;;;;;;;19.69;74.37;94333.16;4152187;28;20128;-69
2022/08/16 05:07:01;;;;;;;20.27;16.77;;;;;;;19.65;74.22;94340.75;4163944;28;20060;-68
2022/08/16 05:09:05;;;;;;;19.67;16.92;;;;;;;19.83;74.43;94331.97;4156863;28;20107;-68
2022/08/16 05:11:09;;;;;;;20.02;16.35;;;;;;;20.01;73.63;94331.91;4158084;28;20046;-68
2022/08/16 05:13:12;;;;;;;22.05;15.93;;;;;;;20.25;73.16;94330.13;4178679;28;20661;-70
2022/08/16 05:15:16;;;;;;;18.92;16.02;;;;;;;20.18;72.29;94334.75;4160888;28;20149;-69
2022/08/16 05:17:19;;;;;;;18.80;16.88;;;;;;;20.17;72.72;94332.31;4177836;28;20064;-69
2022/08/16 05:19:25;;;;;;;22.58;16.98;;;;;;;20.21;73.41;94326.31;4178326;28;20561;-69
2022/08/16 05:21:37;;;;;;;19.88;16.23;;;;;;;20.53;72.71;94338.50;4178138;28;20136;-68
2022/08/16 05:23:40;;;;;;;22.42;16.60;;;;;;;20.76;71.74;94335.91;4176372;28;20067;-69
2022/08/16 05:25:52;;;;;;;19.35;15.90;;;;;;;20.96;70.41;94340.06;4161980;28;20092;-69
2022/08/16 05:27:54;;;;;;;17.10;14.27;;;;;;;21.11;69.29;94343.06;4175453;28;20072;-66
2022/08/16 05:29:57;;;;;;;19.55;14.73;;;;;;;21.25;68.01;94341.78;4147517;28;20061;-69
2022/08/16 05:32:04;;;;;;;20.10;14.18;;;;;;;21.41;67.29;94339.44;4162944;28;20573;-68
2022/08/16 05:34:26;;;;;;;18.50;13.85;;;;;;;21.50;67.10;94338.06;4172737;28;20052;-67
2022/08/16 05:36:28;;;;;;;17.23;14.55;;;;;;;21.45;67.33;94338.75;4177855;28;20059;-69
2022/08/16 05:38:37;;;;;;;20.35;15.82;;;;;;;21.42;67.67;94327.75;4160736;28;20111;-68
2022/08/16 05:40:40;;;;;;;22.65;16.38;;;;;;;21.47;68.13;94331.34;4173181;28;20056;-70
2022/08/16 05:42:58;;;;;;;17.45;15.65;;;;;;;21.14;69.22;94337.25;4175984;28;20152;-69
2022/08/16 05:45:05;;;;;;;23.63;15.88;;;;;;;21.02;70.10;94339.16;4177059;28;20721;-68
2022/08/16 05:47:07;;;;;;;;;;;;;;;20.88;70.42;94343.06;4177721;28;20118;-70
2022/08/16 05:49:15;;;;;;;18.30;15.32;;;;;;;20.93;70.41;94328.03;4160682;28;20223;-69
2022/08/16 05:51:23;;;;;;;18.42;15.48;;;;;;;21.12;70.03;94334.03;4177152;28;20044;-69
2022/08/16 05:53:40;;;;;;;18.02;14.50;;;;;;;21.15;68.80;94330.91;4166647;28;20106;-70
2022/08/16 05:55:42;;;;;;;19.95;15.50;;;;;;;21.25;69.06;94325.81;4159299;28;20563;-69
2022/08/16 05:57:45;;;;;;;23.42;15.95;;;;;;;21.42;68.88;94327.75;4177531;28;20546;-67
2022/08/16 05:59:53;;;;;;;18.05;14.15;;;;;;;21.57;67.65;94329.91;4160881;28;20042;-68
2022/08/16 06:02:01;;;;;;;18.70;14.02;;;;;;;21.48;66.78;94327.63;4176935;28;20178;-69
2022/08/16 06:04:07;;;;;;;21.83;15.00;;;;;;;21.41;67.94;94342.94;4177248;28;20412;-68
2022/08/16 06:06:29;;;;;;;20.23;14.88;;;;;;;21.51;67.87;94338.84;4161980;28;20061;-68
2022/08/16 06:08:31;;;;;;;25.05;15.07;;;;;;;21.45;67.60;94341.44;4158483;28;20531;-68
2022/08/16 06:10:45;;;;;;;18.33;14.75;;;;;;;21.46;67.01;94343.03;4160149;28;20184;-68
2022/08/16 06:13:07;;;;;;;24.30;16.00;;;;;;;21.62;66.93;94336.16;4170799;28;20061;-68
2022/08/16 06:15:13;;;;;;;17.52;15.00;;;;;;;21.58;66.50;94332.34;4170736;28;20059;-69
2022/08/16 06:17:17;;;;;;;21.48;15.20;;;;;;;21.71;66.73;94341.13;4163232;28;20622;-69
2022/08/16 06:19:22;;;;;;;17.30;14.27;;;;;;;21.86;66.12;94341.44;4161237;28;20053;-69
2022/08/16 06:21:24;;;;;;;18.85;13.82;;;;;;;21.91;65.99;94336.19;4160581;28;20624;-69
2022/08/16 06:23:26;;;;;;;21.23;14.85;;;;;;;21.85;65.83;94334.47;4137604;28;20139;-69
2022/08/16 06:25:33;;;;;;;18.20;14.38;;;;;;;21.95;65.05;94332.00;4163082;28;20065;-68
2022/08/16 06:27:39;;;;;;;18.88;14.70;;;;;;;22.01;64.96;94339.03;4153616;28;20082;-69
2022/08/16 06:29:43;;;;;;;19.42;14.45;;;;;;;21.94;65.05;94327.72;4161114;28;20051;-67
2022/08/16 06:31:50;;;;;;;17.02;14.38;;;;;;;22.12;64.86;94331.22;4173983;28;20142;-68
2022/08/16 06:33:52;;;;;;;18.77;14.48;;;;;;;22.24;64.79;94322.16;4165735;28;20053;-69
2022/08/16 06:35:55;;;;;;;19.47;14.87;;;;;;;22.39;64.63;94310.09;4176890;28;20088;-69
2022/08/16 06:38:00;;;;;;;16.75;13.40;;;;;;;22.57;64.28;94314.41;4163834;28;20053;-67
2022/08/16 06:40:04;;;;;;;21.75;13.48;;;;;;;22.77;63.56;94321.91;4170744;28;20053;-68
2022/08/16 06:42:16;;;;;;;19.83;14.13;;;;;;;22.93;61.98;94322.94;4159389;28;20064;-68
2022/08/16 06:44:19;;;;;;;14.73;12.60;;;;;;;23.05;61.45;94326.34;4173877;28;20057;-69
2022/08/16 06:46:36;;;;;;;17.95;13.07;;;;;;;23.20;61.13;94315.06;4176957;28;20271;-67
2022/08/16 06:48:40;;;;;;;16.63;12.75;;;;;;;23.36;60.93;94313.41;4176354;28;20449;-68
2022/08/16 06:50:47;;;;;;;17.92;14.57;;;;;;;;;;4168493;28;20132;-68
2022/08/16 06:52:49;;;;;;;17.00;14.20;;;;;;;22.90;61.69;94319.69;4159321;28;20477;-67
2022/08/16 06:55:12;;;;;;;19.50;15.20;;;;;;;22.64;63.21;94317.72;4161480;28;20049;-68
2022/08/16 06:57:17;;;;;;;20.42;14.88;;;;;;;22.41;63.71;94311.50;4160795;28;20108;-68
2022/08/16 06:59:20;;;;;;;18.55;14.95;;;;;;;22.45;63.62;94312.59;4155651;28;20057;-70
2022/08/16 07:01:27;;;;;;;20.02;15.30;;;;;;;22.58;63.82;94306.13;4162012;28;20437;-70
2022/08/16 07:03:49;;;;;;;22.08;13.32;;;;;;;22.72;63.42;94301.28;4146753;28;20092;-70
2022/08/16 07:05:57;;;;;;;18.65;14.88;;;;;;;22.52;63.69;94292.94;4161944;28;20053;-67
2022/08/16 07:08:03;;;;;;;24.20;14.38;;;;;;;22.53;63.77;94283.91;4164189;28;20580;-69
2022/08/16 07:10:06;;;;;;;20.17;15.48;;;;;;;22.63;63.84;94292.06;4169832;28;20122;-71
2022/08/16 07:12:10;;;;;;;16.83;13.77;;;;;;;22.87;63.66;94288.16;4171978;28;20049;-68
2022/08/16 07:14:15;;;;;;;19.55;14.90;;;;;;;23.19;62.95;94287.56;4159528;28;20045;-70
2022/08/16 07:16:27;;;;;;;20.55;15.27;;;;;;;23.20;61.82;94289.16;4170784;28;20472;-69
2022/08/16 07:18:29;;;;;;;16.40;14.38;;;;;;;23.24;62.04;94286.81;4146618;28;20426;-70
2022/08/16 07:20:31;;;;;;;17.33;13.23;;;;;;;23.43;61.57;94287.31;4163430;28;20126;-69
2022/08/16 07:22:48;;;;;;;15.55;12.73;;;;;;;23.71;61.19;94283.63;4159582;28;20480;-69
2022/08/16 07:24:53;;;;;;;17.92;13.27;;;;;;;23.83;60.19;94275.47;4171147;28;20099;-68
2022/08/16 07:26:55;;;;;;;16.92;12.98;;;;;;;23.90;59.89;94273.41;4149531;28;20061;-68
2022/08/16 07:28:58;;;;;;;17.25;13.68;;;;;;;23.89;59.50;94274.47;4161297;28;20046;-71
2022/08/16 07:31:01;;;;;;;15.03;13.27;;;;;;;23.97;59.42;94271.34;4142323;28;20054;-70
2022/08/16 07:33:04;;;;;;;15.63;12.82;;;;;;;24.04;59.94;94277.28;4157620;28;20153;-69
2022/08/16 07:35:29;;;;;;;15.32;12.50;;;;;;;24.01;58.54;94285.81;4159442;28;20076;-70
2022/08/16 07:37:32;;;;;;;14.90;12.55;;;;;;;23.92;59.33;94279.31;4157970;28;20061;-70
2022/08/16 07:39:34;;;;;;;16.90;12.20;;;;;;;23.91;58.77;94278.50;4171119;28;20048;-70
2022/08/16 07:41:49;;;;;;;14.10;11.88;;;;;;;23.99;59.06;94281.78;4162244;28;20457;-68
2022/08/16 07:43:53;;;;;;;13.82;11.73;;;;;;;24.11;58.94;94277.06;4170122;28;20140;-69
2022/08/16 07:45:58;;;;;;;15.10;11.43;;;;;;;24.00;59.10;94280.72;4167402;28;20084;-69
2022/08/16 07:48:03;;;;;;;16.40;12.27;;;;;;;24.17;58.86;94283.28;4175872;28;20056;-69
2022/08/16 07:50:16;;;;;;;15.45;11.52;;;;;;;24.26;58.21;94287.13;4176091;28;20060;-69
2022/08/16 07:52:38;;;;;;;15.20;11.40;;;;;;;24.10;59.13;94281.63;4175463;28;20055;-67
2022/08/16 07:54:46;;;;;;;16.52;11.80;;;;;;;24.25;58.61;94288.19;4175775;28;20548;-68
2022/08/16 07:56:53;;;;;;;;;;;;;;;24.40;58.01;94282.97;4181519;28;20055;-69
2022/08/16 07:59:02;;;;;;;13.88;11.07;;;;;;;24.52;57.93;94283.63;4174509;28;20378;-68
2022/08/16 08:01:06;;;;;;;16.60;10.75;;;;;;;24.78;57.66;94286.50;4173219;28;20052;-69
2022/08/16 08:03:16;;;;;;;12.85;10.93;;;;;;;24.95;57.25;94286.31;4173924;28;20049;-67
2022/08/16 08:05:18;;;;;;;13.93;9.93;;;;;;;24.96;55.78;94292.50;4175613;28;20487;-69
2022/08/16 08:07:37;;;;;;;13.57;9.88;;;;;;;25.02;55.42;94288.78;4174303;28;20056;-68
2022/08/16 08:09:45;;;;;;;14.73;9.90;;;;;;;25.16;55.19;94294.47;4175287;28;20041;-67
2022/08/16 08:11:50;;;;;;;12.75;10.13;;;;;;;25.31;55.27;94284.66;4174786;28;20147;-66
2022/08/16 08:14:02;;;;;;;12.10;9.07;;;;;;;25.40;54.42;94287.66;4158071;28;20077;-68
2022/08/16 08:16:09;;;;;;;15.10;8.75;;;;;;;25.56;53.40;94285.84;4175244;28;20422;-70
2022/08/16 08:18:19;;;;;;;19.30;8.82;;;;;;;25.59;52.64;94293.38;4175140;28;20449;-69
2022/08/16 08:20:31;;;;;;;13.85;8.20;;;;;;;25.68;52.35;94282.94;4174739;28;20087;-67
2022/08/16 08:22:38;;;;;;;11.85;8.75;;;;;;;25.94;51.84;94275.78;4174533;28;20110;-68
2022/08/16 08:24:40;;;;;;;13.15;8.48;;;;;;;25.95;51.11;94277.41;4173824;28;20538;-68
2022/08/16 08:26:44;;;;;;;7.43;6.28;;;;;;;25.84;48.78;94283.81;4174514;28;20053;-70
2022/08/16 08:28:51;;;;;;;12.38;6.93;;;;;;;26.00;48.68;94282.78;4176544;28;20052;-68
2022/08/16 08:31:02;;;;;;;10.25;6.00;;;;;;;26.30;48.16;94279.31;4177709;28;20040;-69
2022/08/16 08:33:04;;;;;;;8.82;6.70;;;;;;;26.47;46.97;94280.94;4176805;28;20057;-67
2022/08/16 08:35:08;;;;;;;8.18;6.45;;;;;;;26.60;45.77;94282.31;4159127;28;20061;-68
2022/08/16 08:37:11;;;;;;;12.10;6.40;;;;;;;26.50;46.28;94281.22;4158787;28;20060;-67
2022/08/16 08:39:14;;;;;;;6.85;5.72;;;;;;;26.20;45.80;94286.56;4164265;28;20048;-69
2022/08/16 08:41:23;;;;;;;7.57;5.78;;;;;;;26.12;45.46;94282.53;4176378;28;20057;-67
2022/08/16 08:43:29;;;;;;;9.73;5.90;;;;;;;26.23;45.95;94288.72;4174657;28;20767;-67
2022/08/16 08:45:42;;;;;;;8.18;5.47;;;;;;;26.23;45.55;94300.28;4170901;28;20780;-68
2022/08/16 08:47:51;;;;;;;10.55;5.95;;;;;;;26.30;45.30;94289.28;4179077;28;20053;-68
2022/08/16 08:49:59;;;;;;;6.65;5.10;;;;;;;26.18;44.53;94286.03;4179187;28;20045;-67
2022/08/16 08:52:03;;;;;;;7.45;5.13;;;;;;;26.25;45.06;94286.59;4159326;28;20087;-68
2022/08/16 08:54:09;;;;;;;6.65;5.82;;;;;;;26.33;45.33;94291.44;4178903;28;20251;-68
2022/08/16 08:56:12;;;;;;;8.07;6.18;;;;;;;26.64;44.87;94276.16;4165031;28;20045;-68
2022/08/16 08:58:26;;;;;;;6.63;5.35;;;;;;;26.53;43.86;94286.06;4151809;28;20054;-67
2022/08/16 09:00:37;;;;;;;7.38;5.70;;;;;;;26.20;44.63;94286.56;4151959;28;20137;-69
2022/08/16 09:02:52;;;;;;;8.80;6.38;;;;;;;26.22;44.42;94287.94;4161928;28;20473;-69
2022/08/16 09:04:55;;;;;;;7.63;5.15;;;;;;;26.25;43.97;94279.34;4160740;28;20131;-69
2022/08/16 09:06:57;;;;;;;9.55;5.65;;;;;;;26.60;44.38;94276.97;4170327;28;20131;-67
2022/08/16 09:09:03;;;;;;;8.70;5.63;;;;;;;26.86;43.63;94283.09;4178743;28;20059;-67
2022/08/16 09:11:05;;;;;;;7.63;6.20;;;;;;;27.10;43.57;94281.47;4164811;28;20046;-68
2022/08/16 09:13:08;;;;;;;7.47;5.82;;;;;;;27.13;43.03;94275.53;4178211;28;20383;-69
2022/08/16 09:15:11;;;;;;;;;;;;;;;27.39;42.49;94286.25;4178450;28;20404;-67
2022/08/16 09:17:14;;;;;;;5.72;5.13;;;;;;;27.67;42.34;94289.38;4177210;28;19989;-67
2022/08/16 09:19:37;;;;;;;7.72;6.03;;;;;;;27.87;41.64;94288.47;4177888;28;20049;-67
2022/08/16 09:21:42;;;;;;;7.90;5.78;;;;;;;27.96;41.15;94294.88;4159525;28;20045;-67
2022/08/16 09:23:44;;;;;;;6.40;5.28;;;;;;;27.99;40.81;94297.03;4159745;28;20418;-68
2022/08/16 09:25:47;;;;;;;7.57;5.70;;;;;;;28.10;40.70;94287.81;4177471;28;20416;-68
2022/08/16 09:27:50;;;;;;;8.85;5.60;;;;;;;27.80;40.95;94296.03;4160619;28;20406;-70
2022/08/16 09:29:58;;;;;;;8.13;5.55;;;;;;;27.66;41.27;94293.94;4177211;28;20087;-68
2022/08/16 09:32:20;;;;;;;10.65;6.50;;;;;;;27.27;41.71;94291.91;4168309;28;20115;-68
2022/08/16 09:34:32;;;;;;;8.70;6.20;;;;;;;27.56;41.62;94288.59;4178139;28;20057;-68
2022/08/16 09:36:34;;;;;;;8.52;5.25;;;;;;;27.53;41.65;94289.97;4176472;28;20060;-68
2022/08/16 09:38:37;;;;;;;7.30;5.30;;;;;;;27.58;41.83;94289.94;4142864;28;20133;-68
2022/08/16 09:40:45;;;;;;;8.93;5.22;;;;;;;27.62;41.19;94281.28;4175518;28;20685;-68
2022/08/16 09:42:48;;;;;;;6.40;5.22;;;;;;;27.67;41.05;94275.91;4169152;28;20092;-67
2022/08/16 09:44:59;;;;;;;6.93;5.03;;;;;;;27.84;40.59;94273.66;4168440;28;20122;-69
2022/08/16 09:47:18;;;;;;;6.20;4.88;;;;;;;28.06;40.45;94269.81;4175485;28;20405;-67
2022/08/16 09:49:25;;;;;;;6.68;5.28;;;;;;;27.90;40.65;94277.16;4177770;28;20048;-68